NEW HOGAN LAKE (NHG)

Elevation: 554' · CALAVERAS R basin · Operator: US Army Corps of Engineers

Provisional data, subject to change.
Query executed Monday at 18:46:07   clock

Select a sensor type for a plot of data.
Note: Reservoir Flows are daily averages.

Earlier

Date RES ELE    STORAGE    RES CHG    TOC STO    ABV TOC    OUTFLOW    INFLOW    FNF    PPT INC    TEMP MN    TEMP MX   
 FEET   AF   AF   AF   AF   CFS   CFS   CFS   INCHES   DEG F   DEG F  
02/03/2015 618.54 49995 -15 180075 -130080 23 20 20 0.00 8 20
02/04/2015 618.55 50010 15 180897 -130887 8 20 20 0.00 8 21
02/05/2015 618.54 49995 -15 181720 -131725 9 7 7 0.00 8 23
02/06/2015 618.64 50144 149 182543 -132399 9 91 91 1.03 13 23
02/07/2015 619.32 51163 1019 182245 -131082 16 533 533 2.14 14 19
02/08/2015 622.45 56011 4848 172352 -116341 29 2476 2476 1.56 13 18
02/09/2015 626.60 62846 6835 173157 -110311 17 3467 3467 0.10 10 19
02/10/2015 627.32 64080 1234 174844 -110764 9 636 636 0.00 6 15
02/11/2015 627.69 64719 639 176460 -111741 8 335 -- 0.01 6 19
02/12/2015 627.92 65118 399 178013 -112895 10 217 -- 0.00 8 21
02/13/2015 628.07 65379 261 179699 -114320 20 158 158 0.00 8 23
02/14/2015 628.16 65537 158 181376 -115839 26 112 112 0.00 9 23
02/15/2015 628.23 65659 122 183086 -117427 25 92 92 0.00 8 21
02/16/2015 628.29 65764 105 184798 -119034 25 84 84 0.00 8 22
02/17/2015 628.33 65834 70 186528 -120694 25 65 65 0.00 8 16
02/18/2015 628.36 65886 52 188242 -122356 27 57 57 0.00 9 16
02/19/2015 628.39 65939 53 189973 -124034 28 59 59 0.00 8 16
02/20/2015 628.42 65991 52 191703 -125712 22 50 50 0.00 7 12
02/21/2015 628.45 66044 53 193431 -- -- -- -- -- -- --
02/22/2015 628.46 66062 18 195158 -128164 19 33 -- 0.00 6 17
02/23/2015 628.49 66114 52 196530 -130416 19 51 -- 0.00 4 16
02/24/2015 628.49 66114 0 197353 -131239 19 25 -- 0.00 2 17
02/25/2015 628.52 66167 -- 198176 -132009 16 49 -- 0.00 3 17
02/26/2015 628.54 66202 35 198999 -132797 12 36 -- 0.00 5 19
02/27/2015 628.55 66219 17 199822 -133603 16 30 -- 0.00 8 17
02/28/2015 628.58 66272 53 200644 -134372 23 54 -- 0.06 6 16
03/01/2015 628.59 66290 18 201467 -135177 28 43 -- 0.02 4 16
03/02/2015 -- -- -- -- -- -- -- -- -- -- --

Later | Latest

Warning! This data is preliminary and subject to revision.

Show NHG Map | Plot NHG Data | 1 Month NHG Data | Real-Time NHG Data | NHG Info